createdAt,value
2018-09-09T00:02:07.096Z,13.00
2018-09-09T00:04:36.181Z,13.00
2018-09-09T00:07:05.434Z,13.00
2018-09-09T00:09:39.872Z,12.90
2018-09-09T00:12:09.023Z,12.90
2018-09-09T00:14:38.141Z,12.90
2018-09-09T00:17:07.248Z,12.90
2018-09-09T00:19:36.236Z,12.90
2018-09-09T00:22:05.358Z,12.90
2018-09-09T00:24:34.853Z,12.90
2018-09-09T00:27:05.060Z,12.90
2018-09-09T00:29:34.244Z,12.80
2018-09-09T00:32:03.328Z,12.80
2018-09-09T00:34:32.452Z,12.80
2018-09-09T00:37:01.663Z,12.80
2018-09-09T00:39:30.892Z,12.80
2018-09-09T00:41:59.813Z,12.80
2018-09-09T00:44:28.919Z,12.70
2018-09-09T00:46:58.379Z,12.70
2018-09-09T00:49:32.776Z,12.60
2018-09-09T00:52:07.189Z,12.60
2018-09-09T00:54:36.312Z,12.60
2018-09-09T00:57:05.458Z,12.60
2018-09-09T00:59:35.363Z,12.60
2018-09-09T01:02:05.887Z,12.50
2018-09-09T01:04:35.827Z,12.50
2018-09-09T01:07:05.443Z,12.50
2018-09-09T01:09:35.385Z,12.50
2018-09-09T01:12:05.255Z,12.50
2018-09-09T01:14:35.043Z,12.50
2018-09-09T01:17:04.293Z,12.50
2018-09-09T01:19:33.799Z,12.50
2018-09-09T01:22:03.101Z,12.60
2018-09-09T01:24:32.373Z,12.70
2018-09-09T01:27:02.055Z,12.70
2018-09-09T01:29:31.247Z,12.70
2018-09-09T01:32:00.521Z,12.70
2018-09-09T01:34:29.749Z,12.70
2018-09-09T01:36:59.238Z,12.60
2018-09-09T01:39:28.479Z,12.60
2018-09-09T01:41:57.829Z,12.50
2018-09-09T01:44:26.977Z,12.50
2018-09-09T01:46:56.387Z,12.40
2018-09-09T01:49:25.878Z,12.40
2018-09-09T01:51:55.238Z,12.40
2018-09-09T01:54:24.314Z,12.30
2018-09-09T01:56:53.403Z,12.20
2018-09-09T01:59:22.643Z,12.10
2018-09-09T02:01:51.788Z,11.90
2018-09-09T02:04:21.139Z,11.80
2018-09-09T02:06:50.309Z,11.60
2018-09-09T02:09:19.662Z,11.50
2018-09-09T02:11:48.814Z,11.50
2018-09-09T02:14:18.103Z,11.50
2018-09-09T02:16:47.077Z,11.50
2018-09-09T02:19:16.278Z,11.60
2018-09-09T02:21:45.586Z,11.60
2018-09-09T02:24:14.796Z,11.60
2018-09-09T02:26:44.230Z,11.60
2018-09-09T02:29:13.514Z,11.50
2018-09-09T02:31:42.591Z,11.40
2018-09-09T02:34:11.541Z,11.30
2018-09-09T02:36:40.557Z,11.30
2018-09-09T02:39:10.510Z,11.20
2018-09-09T02:41:40.088Z,11.20
2018-09-09T02:44:09.121Z,11.10
2018-09-09T02:46:38.082Z,11.10
2018-09-09T02:49:07.352Z,11.00
2018-09-09T02:51:36.429Z,11.00
2018-09-09T02:54:05.560Z,11.00
2018-09-09T02:56:34.975Z,11.00
2018-09-09T02:59:04.092Z,10.90
2018-09-09T03:01:33.189Z,10.90
2018-09-09T03:04:02.208Z,10.90
2018-09-09T03:06:31.401Z,10.90
2018-09-09T03:09:00.751Z,11.00
2018-09-09T03:11:29.816Z,11.00
2018-09-09T03:13:58.855Z,11.00
2018-09-09T03:16:27.875Z,11.10
2018-09-09T03:18:57.162Z,11.10
2018-09-09T03:21:26.210Z,11.10
2018-09-09T03:23:55.491Z,11.10
2018-09-09T03:26:24.548Z,11.00
2018-09-09T03:28:54.027Z,11.00
2018-09-09T03:31:22.983Z,10.90
2018-09-09T03:33:52.027Z,10.90
2018-09-09T03:36:21.059Z,10.80
2018-09-09T03:38:50.158Z,10.80
2018-09-09T03:41:19.206Z,10.80
2018-09-09T03:43:48.497Z,10.80
2018-09-09T03:46:17.739Z,10.90
2018-09-09T03:48:47.070Z,10.90
2018-09-09T03:51:16.779Z,10.90
2018-09-09T03:53:45.985Z,11.00
2018-09-09T03:56:15.128Z,10.90
2018-09-09T03:58:44.384Z,10.90
2018-09-09T04:01:13.622Z,10.90
2018-09-09T04:03:42.795Z,11.00
2018-09-09T04:06:11.887Z,10.90
2018-09-09T04:08:41.098Z,10.90
2018-09-09T04:11:11.132Z,10.90
2018-09-09T04:13:42.076Z,10.90
2018-09-09T04:16:12.361Z,10.90
2018-09-09T04:18:42.747Z,10.90
2018-09-09T04:21:12.985Z,10.90
2018-09-09T04:23:42.099Z,10.90
2018-09-09T04:26:11.510Z,10.90
2018-09-09T04:28:40.813Z,10.90
2018-09-09T04:31:09.803Z,10.90
2018-09-09T04:33:39.111Z,10.90
2018-09-09T04:36:08.600Z,10.90
2018-09-09T04:38:38.121Z,11.00
2018-09-09T04:41:07.210Z,11.00
2018-09-09T04:43:36.292Z,11.00
2018-09-09T04:46:05.684Z,11.00
2018-09-09T04:48:34.914Z,11.00
2018-09-09T04:51:04.019Z,11.00
2018-09-09T04:53:39.721Z,11.10
2018-09-09T04:56:08.866Z,11.10
2018-09-09T04:58:37.927Z,11.10
2018-09-09T05:01:07.055Z,11.20
2018-09-09T05:03:36.224Z,11.20
2018-09-09T05:06:05.348Z,11.20
2018-09-09T05:08:34.721Z,11.20
2018-09-09T05:11:03.859Z,11.30
2018-09-09T05:13:33.241Z,11.30
2018-09-09T05:17:05.224Z,11.30
2018-09-09T05:19:34.519Z,11.40
2018-09-09T05:22:03.833Z,11.40
2018-09-09T05:24:33.379Z,11.50
2018-09-09T05:27:02.564Z,11.50
2018-09-09T05:29:31.747Z,11.50
2018-09-09T05:32:01.020Z,11.60
2018-09-09T05:34:30.456Z,11.60
2018-09-09T05:36:59.737Z,11.70
2018-09-09T05:39:29.126Z,11.70
2018-09-09T05:41:58.383Z,11.80
2018-09-09T05:44:27.606Z,11.80
2018-09-09T05:46:57.037Z,11.80
2018-09-09T05:49:26.503Z,11.90
2018-09-09T05:51:55.772Z,12.00
2018-09-09T05:54:25.449Z,12.10
2018-09-09T05:56:54.827Z,12.20
2018-09-09T05:59:24.124Z,12.30
2018-09-09T06:01:53.747Z,12.40
2018-09-09T06:04:23.063Z,12.40
2018-09-09T06:06:52.147Z,12.50
2018-09-09T06:09:21.420Z,12.50
2018-09-09T06:11:50.809Z,12.60
2018-09-09T06:14:20.155Z,12.60
2018-09-09T06:16:49.424Z,12.70
2018-09-09T06:19:18.579Z,12.80
2018-09-09T06:21:47.814Z,13.00
2018-09-09T06:24:16.940Z,13.20
2018-09-09T06:26:46.164Z,13.40
2018-09-09T06:29:15.408Z,13.60
2018-09-09T06:31:44.722Z,13.70
2018-09-09T06:34:13.968Z,13.90
2018-09-09T06:36:43.242Z,14.20
2018-09-09T06:39:12.898Z,14.40
2018-09-09T06:41:42.090Z,14.70
2018-09-09T06:44:11.341Z,15.00
2018-09-09T06:46:40.739Z,15.50
2018-09-09T06:49:09.864Z,15.90
2018-09-09T06:51:39.226Z,16.50
2018-09-09T06:54:08.411Z,17.20
2018-09-09T06:56:37.769Z,17.90
2018-09-09T06:59:07.109Z,18.30
2018-09-09T07:01:36.437Z,18.80
2018-09-09T07:04:05.785Z,19.30
2018-09-09T07:06:35.002Z,19.30
2018-09-09T07:09:05.557Z,19.30
2018-09-09T07:11:34.797Z,19.40
2018-09-09T07:14:04.804Z,19.60
2018-09-09T07:16:33.913Z,20.00
2018-09-09T07:19:03.174Z,20.10
2018-09-09T07:21:32.375Z,20.10
2018-09-09T07:24:01.629Z,20.10
2018-09-09T07:26:30.841Z,20.20
2018-09-09T07:29:00.115Z,20.20
2018-09-09T07:31:29.370Z,20.20
2018-09-09T07:33:58.593Z,20.20
2018-09-09T07:36:27.853Z,20.40
2018-09-09T07:38:57.095Z,20.90
2018-09-09T07:41:26.501Z,21.80
2018-09-09T07:43:56.791Z,23.70
2018-09-09T07:46:26.107Z,25.50
2018-09-09T07:48:55.288Z,27.10
2018-09-09T07:51:24.497Z,27.80
2018-09-09T07:53:53.819Z,27.70
2018-09-09T07:56:23.168Z,26.50
2018-09-09T07:58:52.298Z,25.60
2018-09-09T08:01:21.654Z,24.60
2018-09-09T08:03:50.898Z,24.00
2018-09-09T08:06:20.287Z,24.20
2018-09-09T08:08:49.523Z,25.30
2018-09-09T08:11:18.719Z,26.60
2018-09-09T08:13:47.975Z,27.40
2018-09-09T08:16:17.173Z,27.60
2018-09-09T08:18:46.798Z,27.50
2018-09-09T08:21:16.239Z,27.30
2018-09-09T08:23:45.569Z,27.00
2018-09-09T08:26:14.876Z,27.00
2018-09-09T08:28:44.202Z,27.50
2018-09-09T08:31:13.591Z,27.70
2018-09-09T08:33:42.982Z,27.90
2018-09-09T08:36:12.753Z,28.30
2018-09-09T08:38:42.055Z,29.70
2018-09-09T08:41:11.371Z,31.80
2018-09-09T08:43:40.624Z,33.40
2018-09-09T08:46:10.214Z,33.80
2018-09-09T08:48:39.638Z,34.40
2018-09-09T08:51:09.018Z,34.60
2018-09-09T08:53:38.232Z,34.30
2018-09-09T08:56:07.664Z,33.90
2018-09-09T08:58:36.896Z,34.60
2018-09-09T09:01:06.310Z,35.40
2018-09-09T09:03:35.449Z,35.80
2018-09-09T09:06:04.750Z,36.00
2018-09-09T09:08:34.096Z,36.40
2018-09-09T09:11:03.357Z,37.00
2018-09-09T09:13:32.760Z,37.60
2018-09-09T09:16:02.053Z,37.50
2018-09-09T09:18:31.281Z,37.50
2018-09-09T09:21:00.603Z,38.50
2018-09-09T09:23:29.877Z,39.30
2018-09-09T09:25:59.153Z,40.00
2018-09-09T09:28:28.474Z,40.80
2018-09-09T09:30:57.779Z,41.10
2018-09-09T09:33:27.659Z,41.10
2018-09-09T09:38:25.929Z,41.50
2018-09-09T09:40:55.325Z,41.20
2018-09-09T09:43:24.642Z,40.50
2018-09-09T09:45:53.888Z,39.50
2018-09-09T09:48:23.158Z,38.50
2018-09-09T09:50:52.400Z,37.70
2018-09-09T09:53:21.843Z,37.10
2018-09-09T09:55:51.285Z,36.50
2018-09-09T09:58:22.017Z,36.30
2018-09-09T10:01:01.666Z,36.00
2018-09-09T10:03:30.859Z,36.30
2018-09-09T10:06:00.097Z,36.60
2018-09-09T10:08:29.298Z,36.60
2018-09-09T10:10:58.630Z,36.10
2018-09-09T10:13:27.874Z,35.60
2018-09-09T10:15:57.140Z,35.50
2018-09-09T10:18:26.341Z,35.70
2018-09-09T10:20:55.588Z,36.10
2018-09-09T10:23:24.895Z,36.60
2018-09-09T10:25:54.154Z,37.30
2018-09-09T10:28:23.437Z,37.40
2018-09-09T10:30:52.659Z,36.90
2018-09-09T10:33:22.088Z,36.80
2018-09-09T10:35:51.465Z,37.50
2018-09-09T10:38:20.666Z,37.70
2018-09-09T10:40:50.127Z,36.70
2018-09-09T10:43:19.342Z,35.90
2018-09-09T10:45:48.653Z,35.70
2018-09-09T10:48:17.888Z,35.60
2018-09-09T10:50:47.186Z,35.60
2018-09-09T10:53:16.589Z,35.20
2018-09-09T10:55:45.766Z,34.70
2018-09-09T10:58:21.809Z,34.30
2018-09-09T11:00:51.307Z,34.50
2018-09-09T11:03:20.566Z,34.80
2018-09-09T11:05:49.881Z,34.90
2018-09-09T11:08:19.010Z,34.80
2018-09-09T11:10:48.141Z,34.20
2018-09-09T11:13:17.266Z,34.40
2018-09-09T11:15:46.500Z,34.40
2018-09-09T11:18:15.720Z,34.80
2018-09-09T11:20:45.094Z,35.60
2018-09-09T11:23:14.389Z,35.70
2018-09-09T11:25:43.645Z,35.20
2018-09-09T11:28:12.961Z,34.70
2018-09-09T11:30:42.389Z,34.20
2018-09-09T11:33:11.810Z,33.70
2018-09-09T11:35:41.012Z,33.20
2018-09-09T11:38:10.113Z,32.80
2018-09-09T11:40:39.423Z,33.10
2018-09-09T11:43:08.615Z,33.30
2018-09-09T11:45:37.851Z,33.60
2018-09-09T11:48:07.028Z,34.10
2018-09-09T11:50:36.288Z,34.40
2018-09-09T11:53:05.975Z,34.70
2018-09-09T11:55:35.019Z,34.50
2018-09-09T11:58:04.308Z,34.60
2018-09-09T12:00:33.617Z,34.40
2018-09-09T12:03:02.961Z,34.40
2018-09-09T12:05:32.200Z,34.30
2018-09-09T12:08:01.644Z,34.50
2018-09-09T12:10:30.791Z,34.70
2018-09-09T12:13:01.117Z,34.90
2018-09-09T12:15:30.284Z,34.70
2018-09-09T12:17:59.613Z,34.20
2018-09-09T12:20:28.923Z,33.90
2018-09-09T12:22:58.349Z,33.80
2018-09-09T12:25:27.702Z,33.40
2018-09-09T12:27:56.965Z,33.00
2018-09-09T12:30:26.224Z,33.10
2018-09-09T12:32:55.512Z,33.10
2018-09-09T12:35:25.183Z,33.00
2018-09-09T12:37:54.397Z,33.10
2018-09-09T12:40:23.703Z,32.80
2018-09-09T12:45:00.000Z,32.50
2018-09-09T12:47:34.758Z,32.20
2018-09-09T12:50:04.070Z,31.80
2018-09-09T12:52:33.262Z,31.90
2018-09-09T12:55:02.533Z,31.50
2018-09-09T12:57:31.608Z,31.40
2018-09-09T13:00:01.013Z,31.00
2018-09-09T13:02:30.259Z,30.50
2018-09-09T13:04:59.442Z,30.70
2018-09-09T13:07:28.791Z,31.00
2018-09-09T13:09:58.061Z,31.50
2018-09-09T13:12:31.958Z,31.90
2018-09-09T13:15:01.266Z,32.10
2018-09-09T13:17:30.506Z,32.10
2018-09-09T13:19:59.774Z,32.10
2018-09-09T13:22:29.057Z,32.10
2018-09-09T13:24:58.245Z,32.00
2018-09-09T13:27:27.652Z,31.60
2018-09-09T13:29:56.994Z,31.50
2018-09-09T13:32:26.245Z,31.50
2018-09-09T13:37:39.133Z,31.50
2018-09-09T13:40:08.401Z,31.60
2018-09-09T13:42:37.633Z,31.50
2018-09-09T13:45:07.134Z,31.50
2018-09-09T13:47:36.451Z,31.60
2018-09-09T13:50:06.090Z,31.70
2018-09-09T13:52:35.321Z,31.80
2018-09-09T13:55:04.495Z,31.90
2018-09-09T13:57:33.660Z,32.00
2018-09-09T14:00:02.703Z,31.90
2018-09-09T14:02:31.987Z,31.80
2018-09-09T14:05:01.241Z,31.80
2018-09-09T14:07:30.650Z,31.70
2018-09-09T14:09:59.825Z,31.70
2018-09-09T14:12:29.224Z,31.40
2018-09-09T14:14:58.478Z,31.20
2018-09-09T14:17:27.844Z,31.10
2018-09-09T14:19:57.415Z,31.20
2018-09-09T14:22:26.839Z,30.80
2018-09-09T14:24:56.100Z,30.40
2018-09-09T14:27:25.462Z,30.20
2018-09-09T14:29:54.780Z,29.90
2018-09-09T14:32:24.038Z,29.80
2018-09-09T14:34:53.282Z,29.70
2018-09-09T14:37:22.639Z,29.70
2018-09-09T14:39:51.871Z,29.60
2018-09-09T14:42:21.320Z,29.40
2018-09-09T14:44:50.689Z,29.40
2018-09-09T14:47:19.951Z,29.30
2018-09-09T14:49:49.213Z,29.20
2018-09-09T14:52:18.594Z,29.00
2018-09-09T14:54:47.868Z,28.80
2018-09-09T14:57:17.161Z,28.70
2018-09-09T14:59:46.456Z,28.60
2018-09-09T15:02:15.794Z,28.40
2018-09-09T15:04:45.141Z,28.30
2018-09-09T15:07:14.453Z,28.20
2018-09-09T15:09:43.670Z,28.20
2018-09-09T15:12:12.922Z,28.20
2018-09-09T15:14:42.117Z,28.50
2018-09-09T15:17:11.355Z,28.70
2018-09-09T15:19:40.615Z,28.70
2018-09-09T15:22:09.842Z,28.70
2018-09-09T15:24:38.962Z,28.70
2018-09-09T15:27:08.204Z,28.60
2018-09-09T15:29:37.867Z,28.60
2018-09-09T15:32:07.140Z,28.50
2018-09-09T15:34:36.478Z,28.50
2018-09-09T15:37:05.803Z,28.40
2018-09-09T15:39:35.114Z,28.10
2018-09-09T15:42:04.516Z,27.90
2018-09-09T15:44:33.821Z,27.60
2018-09-09T15:47:03.181Z,27.50
2018-09-09T15:49:32.458Z,27.10
2018-09-09T15:52:01.894Z,27.00
2018-09-09T15:54:31.313Z,26.80
2018-09-09T15:57:00.609Z,26.40
2018-09-09T15:59:29.873Z,26.40
2018-09-09T16:01:59.196Z,26.30
2018-09-09T16:04:28.434Z,26.20
2018-09-09T16:06:57.561Z,26.20
2018-09-09T16:09:26.719Z,26.10
2018-09-09T16:11:56.244Z,25.90
2018-09-09T16:14:25.353Z,25.90
2018-09-09T16:16:54.586Z,25.90
2018-09-09T16:19:23.926Z,25.90
2018-09-09T16:21:53.211Z,25.80
2018-09-09T16:24:22.827Z,25.80
2018-09-09T16:26:51.991Z,25.70
2018-09-09T16:29:22.082Z,25.80
2018-09-09T16:31:51.249Z,25.70
2018-09-09T16:34:20.458Z,25.70
2018-09-09T16:36:49.882Z,25.90
2018-09-09T16:39:19.242Z,25.50
2018-09-09T16:41:48.564Z,25.40
2018-09-09T16:44:17.826Z,25.30
2018-09-09T16:46:47.288Z,25.20
2018-09-09T16:49:16.571Z,25.00
2018-09-09T16:51:45.835Z,24.90
2018-09-09T16:54:15.118Z,24.80
2018-09-09T16:56:44.297Z,24.60
2018-09-09T16:59:13.837Z,24.60
2018-09-09T17:01:43.169Z,24.50
2018-09-09T17:04:12.312Z,24.40
2018-09-09T17:06:41.655Z,24.30
2018-09-09T17:09:11.749Z,24.20
2018-09-09T17:11:41.629Z,24.00
2018-09-09T17:14:10.857Z,23.90
2018-09-09T17:19:08.952Z,23.40
2018-09-09T17:21:38.200Z,23.10
2018-09-09T17:24:07.507Z,22.90
2018-09-09T17:26:36.746Z,22.70
2018-09-09T17:29:06.049Z,22.50
2018-09-09T17:31:35.246Z,22.30
2018-09-09T17:34:04.605Z,22.10
2018-09-09T17:36:33.883Z,21.90
2018-09-09T17:39:03.167Z,21.80
2018-09-09T17:41:32.428Z,21.70
2018-09-09T17:44:01.690Z,21.60
2018-09-09T17:46:31.085Z,21.40
2018-09-09T17:49:00.440Z,21.30
2018-09-09T17:51:29.731Z,21.10
2018-09-09T17:53:59.125Z,20.90
2018-09-09T17:56:28.324Z,20.70
2018-09-09T17:58:58.224Z,20.60
2018-09-09T18:01:28.076Z,20.40
2018-09-09T18:03:57.606Z,20.30
2018-09-09T18:06:27.291Z,20.10
2018-09-09T18:08:57.223Z,20.00
2018-09-09T18:11:27.171Z,19.90
2018-09-09T18:13:56.540Z,19.80
2018-09-09T18:16:26.499Z,19.70
2018-09-09T18:18:56.343Z,19.60
2018-09-09T18:21:26.413Z,19.50
2018-09-09T18:23:56.175Z,19.40
2018-09-09T18:26:26.345Z,19.30
2018-09-09T18:28:55.935Z,19.20
2018-09-09T18:31:25.613Z,19.10
2018-09-09T18:33:55.530Z,19.00
2018-09-09T18:36:26.089Z,18.90
2018-09-09T18:38:57.136Z,18.80
2018-09-09T18:41:27.666Z,18.80
2018-09-09T18:43:57.436Z,18.70
2018-09-09T18:46:27.054Z,18.50
2018-09-09T18:48:56.486Z,18.30
2018-09-09T18:51:25.789Z,18.10
2018-09-09T18:53:55.275Z,18.00
2018-09-09T18:56:24.912Z,17.80
2018-09-09T18:58:54.360Z,17.60
2018-09-09T19:01:23.831Z,17.50
2018-09-09T19:03:53.560Z,17.30
2018-09-09T19:06:23.348Z,17.10
2018-09-09T19:08:53.582Z,16.90
2018-09-09T19:11:29.968Z,16.80
2018-09-09T19:14:00.055Z,16.70
2018-09-09T19:16:30.152Z,16.70
2018-09-09T19:19:00.344Z,16.60
2018-09-09T19:21:30.607Z,16.40
2018-09-09T19:24:00.277Z,16.30
2018-09-09T19:26:29.837Z,16.30
2018-09-09T19:28:59.321Z,16.30
2018-09-09T19:31:28.710Z,16.30
2018-09-09T19:33:58.295Z,16.40
2018-09-09T19:36:28.286Z,16.40
2018-09-09T19:38:57.940Z,16.40
2018-09-09T19:41:27.683Z,16.40
2018-09-09T19:43:57.869Z,16.30
2018-09-09T19:46:27.448Z,16.20
2018-09-09T19:48:57.369Z,16.10
2018-09-09T19:51:28.145Z,16.00
2018-09-09T19:53:58.113Z,16.10
2018-09-09T19:56:27.700Z,16.00
2018-09-09T19:58:57.377Z,16.00
2018-09-09T20:01:27.004Z,15.90
2018-09-09T20:03:56.963Z,15.80
2018-09-09T20:06:26.362Z,15.70
2018-09-09T20:08:55.525Z,15.70
2018-09-09T20:11:24.825Z,15.70
2018-09-09T20:13:54.162Z,15.60
2018-09-09T20:16:23.289Z,15.50
2018-09-09T20:18:52.425Z,15.50
2018-09-09T20:21:21.686Z,15.40
2018-09-09T20:23:50.882Z,15.30
2018-09-09T20:26:20.057Z,15.30
2018-09-09T20:28:49.487Z,15.30
2018-09-09T20:31:19.373Z,15.20
2018-09-09T20:33:49.166Z,15.10
2018-09-09T20:36:18.869Z,15.00
2018-09-09T20:38:48.602Z,15.00
2018-09-09T20:41:18.048Z,14.90
2018-09-09T20:43:47.541Z,14.80
2018-09-09T20:46:17.328Z,14.80
2018-09-09T20:48:47.059Z,14.80
2018-09-09T20:51:16.299Z,14.80
2018-09-09T20:53:45.885Z,14.80
2018-09-09T20:56:15.946Z,14.80
2018-09-09T20:58:45.888Z,14.80
2018-09-09T21:01:15.804Z,14.80
2018-09-09T21:03:45.438Z,14.70
2018-09-09T21:06:15.273Z,14.60
2018-09-09T21:08:45.100Z,14.60
2018-09-09T21:11:14.607Z,14.50
2018-09-09T21:13:43.982Z,14.40
2018-09-09T21:16:13.613Z,14.30
2018-09-09T21:18:43.471Z,14.20
2018-09-09T21:21:12.803Z,14.10
2018-09-09T21:23:42.157Z,14.00
2018-09-09T21:26:11.354Z,14.00
2018-09-09T21:28:40.331Z,13.90
2018-09-09T21:31:09.404Z,13.90
2018-09-09T21:33:38.642Z,13.80
2018-09-09T21:36:07.718Z,13.70
2018-09-09T21:38:36.761Z,13.70
2018-09-09T21:41:06.036Z,13.70
2018-09-09T21:43:35.362Z,13.60
2018-09-09T21:46:04.561Z,13.60
2018-09-09T21:48:33.622Z,13.50
2018-09-09T21:51:02.590Z,13.40
2018-09-09T21:53:31.707Z,13.30
2018-09-09T21:56:00.711Z,13.30
2018-09-09T21:58:29.785Z,13.20
2018-09-09T22:01:04.305Z,13.20
2018-09-09T22:03:33.601Z,13.20
2018-09-09T22:06:02.608Z,13.20
2018-09-09T22:08:31.929Z,13.10
2018-09-09T22:11:00.981Z,13.10
2018-09-09T22:13:30.007Z,13.20
2018-09-09T22:15:59.159Z,13.20
2018-09-09T22:18:28.345Z,13.20
2018-09-09T22:20:57.475Z,13.20
2018-09-09T22:23:26.557Z,13.30
2018-09-09T22:25:55.740Z,13.30
2018-09-09T22:28:24.912Z,13.30
2018-09-09T22:30:53.996Z,13.30
2018-09-09T22:33:23.214Z,13.20
2018-09-09T22:35:52.237Z,13.10
2018-09-09T22:38:21.466Z,13.10
2018-09-09T22:40:50.556Z,13.10
2018-09-09T22:43:20.926Z,13.00
2018-09-09T22:45:50.954Z,12.90
2018-09-09T22:48:20.625Z,12.80
2018-09-09T22:50:49.675Z,12.80
2018-09-09T22:53:18.727Z,12.70
2018-09-09T22:55:47.914Z,12.60
2018-09-09T22:58:17.015Z,12.50
2018-09-09T23:00:46.361Z,12.50
2018-09-09T23:03:15.369Z,12.40
2018-09-09T23:05:44.574Z,12.30
2018-09-09T23:08:14.015Z,12.20
2018-09-09T23:10:43.263Z,12.10
2018-09-09T23:13:13.238Z,12.10
2018-09-09T23:15:42.241Z,12.00
2018-09-09T23:18:11.638Z,12.00
2018-09-09T23:20:40.785Z,11.90
2018-09-09T23:23:10.471Z,11.90
2018-09-09T23:25:39.553Z,11.80
2018-09-09T23:28:08.884Z,11.80
2018-09-09T23:33:07.155Z,11.60
2018-09-09T23:35:36.338Z,11.60
2018-09-09T23:38:05.469Z,11.50
2018-09-09T23:40:34.651Z,11.50
2018-09-09T23:43:03.718Z,11.40
2018-09-09T23:45:32.834Z,11.30
2018-09-09T23:48:01.875Z,11.20
2018-09-09T23:50:30.961Z,11.20
2018-09-09T23:52:59.947Z,11.20
2018-09-09T23:55:28.917Z,11.20
2018-09-09T23:57:58.024Z,11.20
